Dalby Springs, Texas
Current Conditions -  °F | °C
As of 11:15 PM on Monday 20 Oct 2014 (Local Time) from KOSA Reporting Station
Overcast Overcast  
Wind Chill: 15°   Ceiling: 700
Heat Index: 15°   Visibility: 1.2mi
Dew Point: 15°   Wind: 0mph
Humidity: 97%   Direction: NA
Pressure: 30.07"   Gusts: NA
Location:  33.4703°N, 94.6281°W
Report Text: KOSA 210415Z AUTO 00000KT 1 1/4SM VV007 15/15 A3007 RMK AO1 VIS 1/2V2 T01540150
Loading
Personal Weather Stations






























Interactive Weather Map
Tropical Storm Tracking
New forecast layout! Learn more

10-Day Weather Forecast

Advertisements
Track Severe Weather on mobile